sensor_id;sensor_type;location;lat;lon;timestamp;pressure;altitude;pressure_sealevel;temperature
62107;BMP280;48087;32.600;-97.100;2022-09-12T00:00:07;;;;28.666379999999997
62107;BMP280;48087;32.600;-97.100;2022-09-12T00:05:12;;;;28.388604999999995
62107;BMP280;48087;32.600;-97.100;2022-09-12T00:10:15;;;;28.166385000000002
62107;BMP280;48087;32.600;-97.100;2022-09-12T00:15:19;;;;27.833054999999995
62107;BMP280;48087;32.600;-97.100;2022-09-12T00:20:24;;;;27.666389999999996
62107;BMP280;48087;32.600;-97.100;2022-09-12T00:25:27;;;;27.22195
62107;BMP280;48087;32.600;-97.100;2022-09-12T00:30:32;;;;27.166395
62107;BMP280;48087;32.600;-97.100;2022-09-12T00:35:39;;;;26.999729999999996
62107;BMP280;48087;32.600;-97.100;2022-09-12T00:40:40;;;;26.77751
62107;BMP280;48087;32.600;-97.100;2022-09-12T00:45:42;;;;26.610845
62107;BMP280;48087;32.600;-97.100;2022-09-12T00:50:47;;;;26.499735
62107;BMP280;48087;32.600;-97.100;2022-09-12T00:55:50;;;;26.333070000000003
62107;BMP280;48087;32.600;-97.100;2022-09-12T01:00:55;;;;26.22196
62107;BMP280;48087;32.600;-97.100;2022-09-12T01:06:00;;;;26.166404999999997
62107;BMP280;48087;32.600;-97.100;2022-09-12T01:11:04;;;;26.055295
62107;BMP280;48087;32.600;-97.100;2022-09-12T01:16:07;;;;25.99974
62107;BMP280;48087;32.600;-97.100;2022-09-12T01:21:13;;;;25.944185
62107;BMP280;48087;32.600;-97.100;2022-09-12T01:26:20;;;;25.833075
62107;BMP280;48087;32.600;-97.100;2022-09-12T01:31:19;;;;25.777520000000003
62107;BMP280;48087;32.600;-97.100;2022-09-12T01:36:32;;;;25.721964999999997
62107;BMP280;48087;32.600;-97.100;2022-09-12T01:41:28;;;;25.610854999999997
62107;BMP280;48087;32.600;-97.100;2022-09-12T01:46:33;;;;25.44419
62107;BMP280;48087;32.600;-97.100;2022-09-12T01:51:36;;;;25.277525
62107;BMP280;48087;32.600;-97.100;2022-09-12T01:56:39;;;;25.166414999999997
62107;BMP280;48087;32.600;-97.100;2022-09-12T02:01:44;;;;24.99975
62107;BMP280;48087;32.600;-97.100;2022-09-12T02:06:48;;;;24.777529999999995
62107;BMP280;48087;32.600;-97.100;2022-09-12T02:11:52;;;;24.721975
62107;BMP280;48087;32.600;-97.100;2022-09-12T02:16:55;;;;24.499754999999997
62107;BMP280;48087;32.600;-97.100;2022-09-12T02:21:59;;;;24.33309
62107;BMP280;48087;32.600;-97.100;2022-09-12T02:27:04;;;;24.221979999999995
62107;BMP280;48087;32.600;-97.100;2022-09-12T02:32:08;;;;24.33309
62107;BMP280;48087;32.600;-97.100;2022-09-12T02:37:11;;;;24.221979999999995
62107;BMP280;48087;32.600;-97.100;2022-09-12T02:42:14;;;;24.221979999999995
62107;BMP280;48087;32.600;-97.100;2022-09-12T02:47:21;;;;24.166425
62107;BMP280;48087;32.600;-97.100;2022-09-12T02:52:22;;;;24.166425
62107;BMP280;48087;32.600;-97.100;2022-09-12T02:57:26;;;;23.999760000000002
62107;BMP280;48087;32.600;-97.100;2022-09-12T03:02:33;;;;23.77754
62107;BMP280;48087;32.600;-97.100;2022-09-12T03:07:40;;;;23.77754
62107;BMP280;48087;32.600;-97.100;2022-09-12T03:12:41;;;;23.77754
62107;BMP280;48087;32.600;-97.100;2022-09-12T03:17:46;;;;23.88865
62107;BMP280;48087;32.600;-97.100;2022-09-12T03:22:48;;;;23.77754
62107;BMP280;48087;32.600;-97.100;2022-09-12T03:27:52;;;;23.721985
62107;BMP280;48087;32.600;-97.100;2022-09-12T03:32:55;;;;23.44421
62107;BMP280;48087;32.600;-97.100;2022-09-12T03:37:58;;;;23.221989999999998
62107;BMP280;48087;32.600;-97.100;2022-09-12T03:43:02;;;;23.221989999999998
62107;BMP280;48087;32.600;-97.100;2022-09-12T03:48:07;;;;22.99977
62107;BMP280;48087;32.600;-97.100;2022-09-12T03:53:10;;;;22.777549999999998
62107;BMP280;48087;32.600;-97.100;2022-09-12T03:58:15;;;;22.721995000000003
62107;BMP280;48087;32.600;-97.100;2022-09-12T04:03:19;;;;22.499775
62107;BMP280;48087;32.600;-97.100;2022-09-12T04:08:22;;;;22.277554999999996
62107;BMP280;48087;32.600;-97.100;2022-09-12T04:13:25;;;;22.222
62107;BMP280;48087;32.600;-97.100;2022-09-12T04:18:30;;;;22.222
62107;BMP280;48087;32.600;-97.100;2022-09-12T04:23:34;;;;22.110889999999998
62107;BMP280;48087;32.600;-97.100;2022-09-12T04:28:54;;;;22.277554999999996
62107;BMP280;48087;32.600;-97.100;2022-09-12T04:33:59;;;;22.388665
62107;BMP280;48087;32.600;-97.100;2022-09-12T04:39:03;;;;22.33311
62107;BMP280;48087;32.600;-97.100;2022-09-12T04:44:06;;;;22.277554999999996
62107;BMP280;48087;32.600;-97.100;2022-09-12T04:49:11;;;;22.222
62107;BMP280;48087;32.600;-97.100;2022-09-12T04:52:22;;;;22.222
62107;BMP280;48087;32.600;-97.100;2022-09-12T04:57:25;;;;22.110889999999998
62107;BMP280;48087;32.600;-97.100;2022-09-12T05:02:31;;;;22.055335
62107;BMP280;48087;32.600;-97.100;2022-09-12T05:07:34;;;;21.944225
62107;BMP280;48087;32.600;-97.100;2022-09-12T05:12:38;;;;21.88867
62107;BMP280;48087;32.600;-97.100;2022-09-12T05:17:41;;;;21.77756
62107;BMP280;48087;32.600;-97.100;2022-09-12T05:22:46;;;;21.66645
62107;BMP280;48087;32.600;-97.100;2022-09-12T05:27:51;;;;21.555339999999998
62107;BMP280;48087;32.600;-97.100;2022-09-12T05:32:54;;;;21.499785000000003
62107;BMP280;48087;32.600;-97.100;2022-09-12T05:37:58;;;;21.388675
62107;BMP280;48087;32.600;-97.100;2022-09-12T05:43:01;;;;21.33312
62107;BMP280;48087;32.600;-97.100;2022-09-12T05:48:06;;;;21.388675
62107;BMP280;48087;32.600;-97.100;2022-09-12T05:53:10;;;;21.33312
62107;BMP280;48087;32.600;-97.100;2022-09-12T05:58:13;;;;21.388675
62107;BMP280;48087;32.600;-97.100;2022-09-12T06:03:17;;;;21.33312
62107;BMP280;48087;32.600;-97.100;2022-09-12T06:08:21;;;;21.277565
62107;BMP280;48087;32.600;-97.100;2022-09-12T06:13:26;;;;21.277565
62107;BMP280;48087;32.600;-97.100;2022-09-12T06:18:30;;;;21.22201
62107;BMP280;48087;32.600;-97.100;2022-09-12T06:23:34;;;;21.22201
62107;BMP280;48087;32.600;-97.100;2022-09-12T06:28:38;;;;21.1109
62107;BMP280;48087;32.600;-97.100;2022-09-12T06:33:44;;;;21.1109
62107;BMP280;48087;32.600;-97.100;2022-09-12T06:38:45;;;;21.055345000000003
62107;BMP280;48087;32.600;-97.100;2022-09-12T06:43:50;;;;20.999789999999997
62107;BMP280;48087;32.600;-97.100;2022-09-12T06:48:54;;;;20.833125
62107;BMP280;48087;32.600;-97.100;2022-09-12T06:53:58;;;;20.722015
62107;BMP280;48087;32.600;-97.100;2022-09-12T06:58:59;;;;20.66646
62107;BMP280;48087;32.600;-97.100;2022-09-12T07:04:06;;;;20.610904999999995
62107;BMP280;48087;32.600;-97.100;2022-09-12T07:09:10;;;;20.499795000000002
62107;BMP280;48087;32.600;-97.100;2022-09-12T07:14:14;;;;20.388685000000002
62107;BMP280;48087;32.600;-97.100;2022-09-12T07:19:18;;;;20.388685000000002
62107;BMP280;48087;32.600;-97.100;2022-09-12T07:24:22;;;;20.333129999999997
62107;BMP280;48087;32.600;-97.100;2022-09-12T07:29:26;;;;20.277575
62107;BMP280;48087;32.600;-97.100;2022-09-12T07:34:29;;;;20.333129999999997
62107;BMP280;48087;32.600;-97.100;2022-09-12T07:39:34;;;;20.277575
62107;BMP280;48087;32.600;-97.100;2022-09-12T07:44:38;;;;20.222020000000004
62107;BMP280;48087;32.600;-97.100;2022-09-12T07:49:42;;;;20.222020000000004
62107;BMP280;48087;32.600;-97.100;2022-09-12T07:54:45;;;;20.11091
62107;BMP280;48087;32.600;-97.100;2022-09-12T07:59:45;;;;20.055354999999995
62107;BMP280;48087;32.600;-97.100;2022-09-12T08:04:53;;;;19.9998
62107;BMP280;48087;32.600;-97.100;2022-09-12T08:09:58;;;;19.888689999999997
62107;BMP280;48087;32.600;-97.100;2022-09-12T08:15:02;;;;19.833135000000002
62107;BMP280;48087;32.600;-97.100;2022-09-12T08:20:05;;;;19.777579999999997
62107;BMP280;48087;32.600;-97.100;2022-09-12T08:25:09;;;;19.777579999999997
62107;BMP280;48087;32.600;-97.100;2022-09-12T08:30:13;;;;19.499804999999995
62107;BMP280;48087;32.600;-97.100;2022-09-12T08:35:17;;;;19.333139999999997
62107;BMP280;48087;32.600;-97.100;2022-09-12T08:40:21;;;;19.222029999999997
62107;BMP280;48087;32.600;-97.100;2022-09-12T08:45:26;;;;19.110920000000004
62107;BMP280;48087;32.600;-97.100;2022-09-12T08:50:59;;;;19.055365
62107;BMP280;48087;32.600;-97.100;2022-09-12T08:56:06;;;;18.99981
62107;BMP280;48087;32.600;-97.100;2022-09-12T09:01:11;;;;18.8887
62107;BMP280;48087;32.600;-97.100;2022-09-12T09:06:16;;;;18.944254999999995
62107;BMP280;48087;32.600;-97.100;2022-09-12T09:11:21;;;;18.777589999999996
62107;BMP280;48087;32.600;-97.100;2022-09-12T09:16:37;;;;18.722035
62107;BMP280;48087;32.600;-97.100;2022-09-12T09:21:42;;;;18.499814999999998
62107;BMP280;48087;32.600;-97.100;2022-09-12T09:26:48;;;;18.555370000000003
62107;BMP280;48087;32.600;-97.100;2022-09-12T09:31:51;;;;18.388704999999998
62107;BMP280;48087;32.600;-97.100;2022-09-12T09:36:55;;;;18.277595
62107;BMP280;48087;32.600;-97.100;2022-09-12T09:42:04;;;;17.999820000000003
62107;BMP280;48087;32.600;-97.100;2022-09-12T09:47:01;;;;17.88871
62107;BMP280;48087;32.600;-97.100;2022-09-12T09:52:06;;;;17.7776
62107;BMP280;48087;32.600;-97.100;2022-09-12T09:57:35;;;;17.499825
62107;BMP280;48087;32.600;-97.100;2022-09-12T10:02:18;;;;17.277605
62107;BMP280;48087;32.600;-97.100;2022-09-12T10:07:18;;;;17.722044999999998
62107;BMP280;48087;32.600;-97.100;2022-09-12T10:12:23;;;;18.110929999999996
62107;BMP280;48087;32.600;-97.100;2022-09-12T10:17:27;;;;18.44426
62107;BMP280;48087;32.600;-97.100;2022-09-12T10:22:29;;;;18.722035
62107;BMP280;48087;32.600;-97.100;2022-09-12T10:27:32;;;;18.777589999999996
62107;BMP280;48087;32.600;-97.100;2022-09-12T10:32:37;;;;18.777589999999996
62107;BMP280;48087;32.600;-97.100;2022-09-12T10:37:41;;;;18.833145000000002
62107;BMP280;48087;32.600;-97.100;2022-09-12T10:42:46;;;;18.99981
62107;BMP280;48087;32.600;-97.100;2022-09-12T10:47:49;;;;18.944254999999995
62107;BMP280;48087;32.600;-97.100;2022-09-12T10:52:53;;;;18.99981
62107;BMP280;48087;32.600;-97.100;2022-09-12T10:58:17;;;;18.944254999999995
62107;BMP280;48087;32.600;-97.100;2022-09-12T11:03:05;;;;18.777589999999996
62107;BMP280;48087;32.600;-97.100;2022-09-12T11:08:08;;;;18.610924999999998
62107;BMP280;48087;32.600;-97.100;2022-09-12T11:13:13;;;;18.388704999999998
62107;BMP280;48087;32.600;-97.100;2022-09-12T11:18:16;;;;18.277595
62107;BMP280;48087;32.600;-97.100;2022-09-12T11:23:35;;;;18.22204
62107;BMP280;48087;32.600;-97.100;2022-09-12T11:28:24;;;;18.055374999999998
62107;BMP280;48087;32.600;-97.100;2022-09-12T11:33:28;;;;17.944264999999998
62107;BMP280;48087;32.600;-97.100;2022-09-12T11:38:32;;;;17.7776
62107;BMP280;48087;32.600;-97.100;2022-09-12T11:43:35;;;;17.66649
62107;BMP280;48087;32.600;-97.100;2022-09-12T11:48:39;;;;17.722044999999998
62107;BMP280;48087;32.600;-97.100;2022-09-12T11:53:41;;;;17.88871
62107;BMP280;48087;32.600;-97.100;2022-09-12T11:58:46;;;;17.944264999999998
62107;BMP280;48087;32.600;-97.100;2022-09-12T12:03:49;;;;18.110929999999996
62107;BMP280;48087;32.600;-97.100;2022-09-12T12:08:52;;;;18.166485
62107;BMP280;48087;32.600;-97.100;2022-09-12T12:13:58;;;;18.277595
62107;BMP280;48087;32.600;-97.100;2022-09-12T12:19:01;;;;18.388704999999998
62107;BMP280;48087;32.600;-97.100;2022-09-12T12:24:34;;;;18.499814999999998
62107;BMP280;48087;32.600;-97.100;2022-09-12T12:29:41;;;;18.666479999999996
62107;BMP280;48087;32.600;-97.100;2022-09-12T12:34:45;;;;18.777589999999996
62107;BMP280;48087;32.600;-97.100;2022-09-12T12:39:54;;;;18.8887
62107;BMP280;48087;32.600;-97.100;2022-09-12T12:44:52;;;;19.055365
62107;BMP280;48087;32.600;-97.100;2022-09-12T12:49:57;;;;19.166475
62107;BMP280;48087;32.600;-97.100;2022-09-12T12:55:01;;;;19.277585000000002
62107;BMP280;48087;32.600;-97.100;2022-09-12T13:00:05;;;;19.55536
62107;BMP280;48087;32.600;-97.100;2022-09-12T13:05:16;;;;19.888689999999997
62107;BMP280;48087;32.600;-97.100;2022-09-12T13:10:18;;;;20.388685000000002
62107;BMP280;48087;32.600;-97.100;2022-09-12T13:15:50;;;;20.722015
62107;BMP280;48087;32.600;-97.100;2022-09-12T13:20:21;;;;21.499785000000003
62107;BMP280;48087;32.600;-97.100;2022-09-12T13:25:26;;;;22.33311
62107;BMP280;48087;32.600;-97.100;2022-09-12T13:30:28;;;;22.777549999999998
62107;BMP280;48087;32.600;-97.100;2022-09-12T13:35:35;;;;22.222
62107;BMP280;48087;32.600;-97.100;2022-09-12T13:40:38;;;;22.499775
62107;BMP280;48087;32.600;-97.100;2022-09-12T13:45:41;;;;23.166435
62107;BMP280;48087;32.600;-97.100;2022-09-12T13:50:47;;;;24.221979999999995
62107;BMP280;48087;32.600;-97.100;2022-09-12T13:55:49;;;;23.833095000000004
62107;BMP280;48087;32.600;-97.100;2022-09-12T14:01:02;;;;24.055314999999997
62107;BMP280;48087;32.600;-97.100;2022-09-12T14:05:57;;;;24.33309
62107;BMP280;48087;32.600;-97.100;2022-09-12T14:11:00;;;;24.610864999999997
62107;BMP280;48087;32.600;-97.100;2022-09-12T14:16:05;;;;23.944204999999997
62107;BMP280;48087;32.600;-97.100;2022-09-12T14:21:08;;;;24.110870000000002
62107;BMP280;48087;32.600;-97.100;2022-09-12T14:26:13;;;;24.33309
62107;BMP280;48087;32.600;-97.100;2022-09-12T14:31:21;;;;24.33309
62107;BMP280;48087;32.600;-97.100;2022-09-12T14:36:22;;;;24.221979999999995
62107;BMP280;48087;32.600;-97.100;2022-09-12T14:41:25;;;;24.499754999999997
62107;BMP280;48087;32.600;-97.100;2022-09-12T14:46:29;;;;24.610864999999997
62107;BMP280;48087;32.600;-97.100;2022-09-12T14:51:32;;;;24.33309
62107;BMP280;48087;32.600;-97.100;2022-09-12T14:56:37;;;;24.721975
62107;BMP280;48087;32.600;-97.100;2022-09-12T15:01:40;;;;24.99975
62107;BMP280;48087;32.600;-97.100;2022-09-12T15:06:45;;;;25.777520000000003
62107;BMP280;48087;32.600;-97.100;2022-09-12T15:11:47;;;;26.610845
62107;BMP280;48087;32.600;-97.100;2022-09-12T15:16:52;;;;27.33306
62107;BMP280;48087;32.600;-97.100;2022-09-12T15:21:56;;;;27.277504999999998
62107;BMP280;48087;32.600;-97.100;2022-09-12T15:27:00;;;;26.499735
62107;BMP280;48087;32.600;-97.100;2022-09-12T15:32:04;;;;26.444179999999996
62107;BMP280;48087;32.600;-97.100;2022-09-12T15:37:09;;;;27.444170000000003
62107;BMP280;48087;32.600;-97.100;2022-09-12T15:42:11;;;;27.11084
62107;BMP280;48087;32.600;-97.100;2022-09-12T15:47:16;;;;26.833064999999998
62107;BMP280;48087;32.600;-97.100;2022-09-12T15:52:20;;;;27.388614999999998
62107;BMP280;48087;32.600;-97.100;2022-09-12T15:57:25;;;;27.555279999999996
62107;BMP280;48087;32.600;-97.100;2022-09-12T16:02:27;;;;27.499724999999998
62107;BMP280;48087;32.600;-97.100;2022-09-12T16:07:32;;;;28.166385000000002
62107;BMP280;48087;32.600;-97.100;2022-09-12T16:12:35;;;;28.388604999999995
62107;BMP280;48087;32.600;-97.100;2022-09-12T16:17:40;;;;28.44416
62107;BMP280;48087;32.600;-97.100;2022-09-12T16:22:43;;;;28.499715
62107;BMP280;48087;32.600;-97.100;2022-09-12T16:27:48;;;;28.944154999999995
62107;BMP280;48087;32.600;-97.100;2022-09-12T16:32:51;;;;29.277485000000002
62107;BMP280;48087;32.600;-97.100;2022-09-12T16:37:55;;;;28.388604999999995
62107;BMP280;48087;32.600;-97.100;2022-09-12T16:42:59;;;;28.555270000000004
62107;BMP280;48087;32.600;-97.100;2022-09-12T16:48:03;;;;28.555270000000004
62107;BMP280;48087;32.600;-97.100;2022-09-12T16:53:07;;;;28.277495000000002
62107;BMP280;48087;32.600;-97.100;2022-09-12T16:58:12;;;;29.166375
62107;BMP280;48087;32.600;-97.100;2022-09-12T17:03:15;;;;28.44416
62107;BMP280;48087;32.600;-97.100;2022-09-12T17:08:20;;;;28.555270000000004
62107;BMP280;48087;32.600;-97.100;2022-09-12T17:13:23;;;;28.99971
62107;BMP280;48087;32.600;-97.100;2022-09-12T17:18:28;;;;28.833045000000002
62107;BMP280;48087;32.600;-97.100;2022-09-12T17:23:31;;;;28.721935000000002
62107;BMP280;48087;32.600;-97.100;2022-09-12T17:28:37;;;;28.777489999999997
62107;BMP280;48087;32.600;-97.100;2022-09-12T17:33:39;;;;28.944154999999995
62107;BMP280;48087;32.600;-97.100;2022-09-12T17:38:44;;;;28.666379999999997
62107;BMP280;48087;32.600;-97.100;2022-09-12T17:43:48;;;;29.221929999999997
62107;BMP280;48087;32.600;-97.100;2022-09-12T17:48:52;;;;29.55526
62107;BMP280;48087;32.600;-97.100;2022-09-12T17:53:56;;;;30.166365
62107;BMP280;48087;32.600;-97.100;2022-09-12T17:59:00;;;;29.777479999999997
62107;BMP280;48087;32.600;-97.100;2022-09-12T18:04:03;;;;30.888579999999997
62107;BMP280;48087;32.600;-97.100;2022-09-12T18:09:08;;;;31.277465
62107;BMP280;48087;32.600;-97.100;2022-09-12T18:14:11;;;;31.055245000000003
62107;BMP280;48087;32.600;-97.100;2022-09-12T18:19:15;;;;31.721904999999996
62107;BMP280;48087;32.600;-97.100;2022-09-12T18:24:19;;;;31.33302
62107;BMP280;48087;32.600;-97.100;2022-09-12T18:29:23;;;;31.77746
62107;BMP280;48087;32.600;-97.100;2022-09-12T18:34:27;;;;31.555239999999998
62107;BMP280;48087;32.600;-97.100;2022-09-12T18:39:32;;;;32.2219
62107;BMP280;48087;32.600;-97.100;2022-09-12T18:44:35;;;;32.055235
62107;BMP280;48087;32.600;-97.100;2022-09-12T18:49:40;;;;32.2219
62107;BMP280;48087;32.600;-97.100;2022-09-12T18:54:43;;;;31.388575
62107;BMP280;48087;32.600;-97.100;2022-09-12T18:59:47;;;;30.833025
62107;BMP280;48087;32.600;-97.100;2022-09-12T19:04:51;;;;31.166354999999996
62107;BMP280;48087;32.600;-97.100;2022-09-12T19:09:56;;;;30.610804999999996
62107;BMP280;48087;32.600;-97.100;2022-09-12T19:15:00;;;;31.33302
62107;BMP280;48087;32.600;-97.100;2022-09-12T19:20:03;;;;31.444129999999998
62107;BMP280;48087;32.600;-97.100;2022-09-12T19:25:08;;;;31.999679999999998
62107;BMP280;48087;32.600;-97.100;2022-09-12T19:30:11;;;;31.833014999999996
62107;BMP280;48087;32.600;-97.100;2022-09-12T19:35:15;;;;33.055225
62107;BMP280;48087;32.600;-97.100;2022-09-12T19:40:19;;;;32.444120000000005
62107;BMP280;48087;32.600;-97.100;2022-09-12T19:45:23;;;;31.22191
62107;BMP280;48087;32.600;-97.100;2022-09-12T19:50:27;;;;32.110789999999994
62107;BMP280;48087;32.600;-97.100;2022-09-12T19:55:31;;;;32.055235
62107;BMP280;48087;32.600;-97.100;2022-09-12T20:00:35;;;;32.99967
62107;BMP280;48087;32.600;-97.100;2022-09-12T20:05:39;;;;33.166335000000004
62107;BMP280;48087;32.600;-97.100;2022-09-12T20:10:43;;;;32.33301
62107;BMP280;48087;32.600;-97.100;2022-09-12T20:15:47;;;;31.999679999999998
62107;BMP280;48087;32.600;-97.100;2022-09-12T20:20:50;;;;32.88856
62107;BMP280;48087;32.600;-97.100;2022-09-12T20:25:59;;;;33.166335000000004
62107;BMP280;48087;32.600;-97.100;2022-09-12T20:30:59;;;;33.277445
62107;BMP280;48087;32.600;-97.100;2022-09-12T20:36:04;;;;32.83300499999999
62107;BMP280;48087;32.600;-97.100;2022-09-12T20:41:08;;;;33.666329999999995
62107;BMP280;48087;32.600;-97.100;2022-09-12T20:46:11;;;;33.77744
62107;BMP280;48087;32.600;-97.100;2022-09-12T20:51:15;;;;33.44411
62107;BMP280;48087;32.600;-97.100;2022-09-12T20:56:20;;;;33.44411
62107;BMP280;48087;32.600;-97.100;2022-09-12T21:01:24;;;;33.99966
62107;BMP280;48087;32.600;-97.100;2022-09-12T21:06:27;;;;33.721885
62107;BMP280;48087;32.600;-97.100;2022-09-12T21:11:31;;;;32.77745
62107;BMP280;48087;32.600;-97.100;2022-09-12T21:16:36;;;;32.721895
62107;BMP280;48087;32.600;-97.100;2022-09-12T21:21:39;;;;33.666329999999995
62107;BMP280;48087;32.600;-97.100;2022-09-12T21:26:43;;;;33.77744
62107;BMP280;48087;32.600;-97.100;2022-09-12T21:31:46;;;;33.388555
62107;BMP280;48087;32.600;-97.100;2022-09-12T21:36:51;;;;33.77744
62107;BMP280;48087;32.600;-97.100;2022-09-12T21:41:55;;;;32.77745
62107;BMP280;48087;32.600;-97.100;2022-09-12T21:46:59;;;;33.721885
62107;BMP280;48087;32.600;-97.100;2022-09-12T21:52:03;;;;34.332989999999995
62107;BMP280;48087;32.600;-97.100;2022-09-12T21:57:07;;;;34.721875
62107;BMP280;48087;32.600;-97.100;2022-09-12T22:02:10;;;;34.66632
62107;BMP280;48087;32.600;-97.100;2022-09-12T22:07:15;;;;33.721885
62107;BMP280;48087;32.600;-97.100;2022-09-12T22:12:18;;;;33.99966
62107;BMP280;48087;32.600;-97.100;2022-09-12T22:17:23;;;;33.77744
62107;BMP280;48087;32.600;-97.100;2022-09-12T22:22:27;;;;33.277445
62107;BMP280;48087;32.600;-97.100;2022-09-12T22:27:31;;;;32.277454999999996
62107;BMP280;48087;32.600;-97.100;2022-09-12T22:32:34;;;;32.055235
62107;BMP280;48087;32.600;-97.100;2022-09-12T22:37:39;;;;33.221889999999995
62107;BMP280;48087;32.600;-97.100;2022-09-12T22:42:42;;;;32.610785
62107;BMP280;48087;32.600;-97.100;2022-09-12T22:47:47;;;;31.999679999999998
62107;BMP280;48087;32.600;-97.100;2022-09-12T22:52:51;;;;32.444120000000005
62107;BMP280;48087;32.600;-97.100;2022-09-12T22:57:55;;;;32.277454999999996
62107;BMP280;48087;32.600;-97.100;2022-09-12T23:02:58;;;;32.610785
62107;BMP280;48087;32.600;-97.100;2022-09-12T23:08:02;;;;32.555229999999995
62107;BMP280;48087;32.600;-97.100;2022-09-12T23:13:06;;;;32.33301
62107;BMP280;48087;32.600;-97.100;2022-09-12T23:18:10;;;;31.999679999999998
62107;BMP280;48087;32.600;-97.100;2022-09-12T23:23:14;;;;31.999679999999998
62107;BMP280;48087;32.600;-97.100;2022-09-12T23:28:18;;;;31.444129999999998
62107;BMP280;48087;32.600;-97.100;2022-09-12T23:33:22;;;;30.721915
62107;BMP280;48087;32.600;-97.100;2022-09-12T23:38:28;;;;30.499695000000003
62107;BMP280;48087;32.600;-97.100;2022-09-12T23:43:31;;;;29.777479999999997
62107;BMP280;48087;32.600;-97.100;2022-09-12T23:48:34;;;;29.166375
62107;BMP280;48087;32.600;-97.100;2022-09-12T23:52:50;;;;28.99971
62107;BMP280;48087;32.600;-97.100;2022-09-12T23:57:55;;;;28.666379999999997
